Time;durP1;ratioP1;P1;durP2;ratioP2;P2;SDS_P1;SDS_P2;PMS_P1;PMS_P2;Temp;Humidity;BMP_temperature;BMP_pressure;BME280_temperature;BME280_humidity;BME280_pressure;Samples;Min_cycle;Max_cycle;Signal;HPM_P1;HPM_P2
2023/06/28 00:00:44;;;;;;;39.70;38.03;;;16.30;64.80;;;;;;5088236;28;20021;-73
2023/06/28 00:03:11;;;;;;;37.78;35.90;;;16.30;63.30;;;;;;5057206;28;20060;-74
2023/06/28 00:05:37;;;;;;;39.80;37.97;;;16.30;62.20;;;;;;5075590;28;20025;-73
2023/06/28 00:08:03;;;;;;;40.20;38.28;;;16.30;62.50;;;;;;5073169;28;20032;-74
2023/06/28 00:10:29;;;;;;;36.95;35.15;;;16.30;62.30;;;;;;5077651;28;20111;-73
2023/06/28 00:12:55;;;;;;;34.05;32.42;;;16.30;62.70;;;;;;5058146;28;20032;-73
2023/06/28 00:15:21;;;;;;;37.58;35.97;;;16.20;64.80;;;;;;5077762;28;20028;-73
2023/06/28 00:17:47;;;;;;;28.88;27.17;;;16.20;64.90;;;;;;5090969;28;20106;-73
2023/06/28 00:20:13;;;;;;;29.33;27.95;;;16.20;63.50;;;;;;5080079;28;20042;-73
2023/06/28 00:22:39;;;;;;;23.13;21.88;;;16.20;64.10;;;;;;5077697;28;20032;-73
2023/06/28 00:25:06;;;;;;;21.85;20.73;;;16.20;63.30;;;;;;5061575;28;20052;-73
2023/06/28 00:27:32;;;;;;;24.50;23.30;;;16.20;63.30;;;;;;5089589;28;20057;-73
2023/06/28 00:29:58;;;;;;;24.75;23.48;;;16.20;63.00;;;;;;5075792;28;20056;-73
2023/06/28 00:32:25;;;;;;;25.23;24.05;;;16.10;62.10;;;;;;5059672;28;20509;-73
2023/06/28 00:34:51;;;;;;;23.88;22.65;;;16.10;64.10;;;;;;5078505;28;20636;-73
2023/06/28 00:37:17;;;;;;;17.63;16.73;;;16.20;65.60;;;;;;5083332;28;20059;-73
2023/06/28 00:39:42;;;;;;;22.02;20.83;;;16.20;63.50;;;;;;5081956;28;20547;-73
2023/06/28 00:42:08;;;;;;;23.02;21.83;;;16.00;62.90;;;;;;5077308;28;20040;-73
2023/06/28 00:44:34;;;;;;;22.63;21.17;;;16.00;64.90;;;;;;5077609;28;20032;-74
2023/06/28 00:47:02;;;;;;;18.65;17.45;;;16.00;63.70;;;;;;5057349;28;20024;-73
2023/06/28 00:49:34;;;;;;;22.88;21.55;;;16.10;63.50;;;;;;5077321;28;20024;-73
2023/06/28 00:52:01;;;;;;;27.02;25.67;;;16.10;62.00;;;;;;5076385;28;20115;-73
2023/06/28 00:54:26;;;;;;;18.95;17.95;;;16.00;64.20;;;;;;5076617;28;20081;-73
2023/06/28 00:56:53;;;;;;;22.58;21.27;;;16.00;64.50;;;;;;5082359;28;20032;-73
2023/06/28 00:59:18;;;;;;;23.40;22.00;;;16.10;61.90;;;;;;5076391;28;20762;-73
2023/06/28 01:01:44;;;;;;;35.47;33.85;;;15.90;63.30;;;;;;5077108;28;20024;-73
2023/06/28 01:04:13;;;;;;;30.95;29.55;;;16.00;62.10;;;;;;5077072;28;20035;-73
2023/06/28 01:06:41;;;;;;;20.23;19.13;;;16.10;62.30;;;;;;5075326;28;20112;-73
2023/06/28 01:09:08;;;;;;;23.17;21.75;;;16.10;62.20;;;;;;5079978;28;20070;-73
2023/06/28 01:11:34;;;;;;;19.73;18.50;;;16.00;62.00;;;;;;5076769;28;20032;-74
2023/06/28 01:14:02;;;;;;;17.90;16.95;;;16.10;61.10;;;;;;5072320;28;20482;-73
2023/06/28 01:16:28;;;;;;;19.73;18.70;;;16.10;60.10;;;;;;5076448;28;20047;-74
2023/06/28 01:18:54;;;;;;;31.90;30.42;;;16.20;59.80;;;;;;5073155;28;20032;-73
2023/06/28 01:21:25;;;;;;;37.08;35.13;;;16.20;58.80;;;;;;5058746;28;20036;-73
2023/06/28 01:23:51;;;;;;;47.90;45.75;;;16.20;58.20;;;;;;5074496;28;20055;-73
2023/06/28 01:26:17;;;;;;;42.90;41.05;;;16.20;58.00;;;;;;5073080;28;20111;-73
2023/06/28 01:28:44;;;;;;;35.83;34.05;;;16.20;58.10;;;;;;5076307;28;20063;-73
2023/06/28 01:31:11;;;;;;;42.47;40.58;;;16.20;58.50;;;;;;5076352;28;20033;-73
2023/06/28 01:33:38;;;;;;;37.80;36.03;;;16.20;59.00;;;;;;5076721;28;20020;-73
2023/06/28 01:36:04;;;;;;;29.63;28.23;;;16.30;58.50;;;;;;5088138;28;20456;-73
2023/06/28 01:38:31;;;;;;;38.15;36.22;;;16.20;58.20;;;;;;5069843;28;20504;-74
2023/06/28 01:40:58;;;;;;;33.25;31.65;;;16.20;58.50;;;;;;5076626;28;20024;-73
2023/06/28 01:43:24;;;;;;;20.52;19.33;;;16.20;59.70;;;;;;5073842;28;20055;-74
2023/06/28 01:45:50;;;;;;;29.38;27.88;;;16.20;58.90;;;;;;5089934;28;20059;-74
2023/06/28 01:48:16;;;;;;;31.60;30.23;;;16.20;58.60;;;;;;5076103;28;20031;-73
2023/06/28 01:50:42;;;;;;;28.15;26.75;;;16.20;59.10;;;;;;5072865;28;20039;-73
2023/06/28 01:53:08;;;;;;;26.83;25.63;;;16.20;59.10;;;;;;5079714;28;20033;-73
2023/06/28 01:55:34;;;;;;;21.10;19.90;;;16.20;58.60;;;;;;5077565;28;20024;-73
2023/06/28 01:57:59;;;;;;;25.00;23.63;;;16.20;58.60;;;;;;5071815;28;20035;-73
2023/06/28 02:00:25;;;;;;;23.95;22.52;;;16.10;58.80;;;;;;5080904;28;20028;-74
2023/06/28 02:02:52;;;;;;;22.80;21.65;;;16.20;59.30;;;;;;5073953;28;20089;-73
2023/06/28 02:05:19;;;;;;;21.42;19.83;;;16.10;59.20;;;;;;5076954;28;20034;-73
2023/06/28 02:07:45;;;;;;;20.27;19.15;;;16.00;59.20;;;;;;5058996;28;20056;-73
2023/06/28 02:10:11;;;;;;;17.73;16.63;;;16.00;60.30;;;;;;5072203;28;20510;-73
2023/06/28 02:12:36;;;;;;;17.05;15.90;;;16.00;60.70;;;;;;5072877;28;20144;-73
2023/06/28 02:15:02;;;;;;;17.90;16.80;;;15.90;61.50;;;;;;5073730;28;20071;-73
2023/06/28 02:17:31;;;;;;;15.75;14.75;;;15.90;61.70;;;;;;5057799;28;20055;-73
2023/06/28 02:19:57;;;;;;;18.90;17.83;;;15.90;61.90;;;;;;5070858;28;20477;-73
2023/06/28 02:22:23;;;;;;;14.60;13.70;;;15.80;62.30;;;;;;5072958;28;20052;-73
2023/06/28 02:24:48;;;;;;;16.50;15.60;;;15.80;61.50;;;;;;5057139;28;20402;-73
2023/06/28 02:27:14;;;;;;;16.20;15.30;;;15.80;61.70;;;;;;5088873;28;20781;-73
2023/06/28 02:29:40;;;;;;;17.45;16.55;;;15.90;61.10;;;;;;5071482;28;20085;-73
2023/06/28 02:32:06;;;;;;;18.02;17.00;;;15.90;60.10;;;;;;5071012;28;20040;-74
2023/06/28 02:34:32;;;;;;;17.05;16.17;;;15.90;60.40;;;;;;5073434;28;20417;-74
2023/06/28 02:36:58;;;;;;;18.55;17.50;;;15.90;60.60;;;;;;5077228;28;20040;-73
2023/06/28 02:39:24;;;;;;;17.48;16.38;;;15.90;60.70;;;;;;5056103;28;20028;-73
2023/06/28 02:41:50;;;;;;;18.00;17.00;;;15.90;61.40;;;;;;5072621;28;20047;-73
2023/06/28 02:44:16;;;;;;;18.83;17.80;;;16.00;58.80;;;;;;5069206;28;20104;-73
2023/06/28 02:46:42;;;;;;;23.20;21.75;;;16.00;58.10;;;;;;5085469;28;20162;-73
2023/06/28 02:49:07;;;;;;;21.63;20.52;;;16.00;58.60;;;;;;5072339;28;20546;-74
2023/06/28 02:51:33;;;;;;;19.15;18.00;;;15.90;60.00;;;;;;5075613;28;20044;-74
2023/06/28 02:53:59;;;;;;;18.83;17.63;;;15.70;61.40;;;;;;5073664;28;20375;-74
2023/06/28 02:56:25;;;;;;;18.08;17.13;;;15.60;63.70;;;;;;5073511;28;20039;-73
2023/06/28 02:58:51;;;;;;;19.35;18.25;;;15.50;65.70;;;;;;5074059;28;20032;-73
2023/06/28 03:01:20;;;;;;;17.70;16.63;;;15.30;66.20;;;;;;5073702;28;20040;-74
2023/06/28 03:03:47;;;;;;;18.33;17.15;;;15.20;66.10;;;;;;5073306;28;20048;-73
2023/06/28 03:06:13;;;;;;;16.95;15.95;;;15.10;66.50;;;;;;5074033;28;20025;-73
2023/06/28 03:08:39;;;;;;;18.20;17.17;;;15.10;66.70;;;;;;5068503;28;20126;-73
2023/06/28 03:11:04;;;;;;;17.60;16.08;;;15.10;67.60;;;;;;5072062;28;20028;-73
2023/06/28 03:13:30;;;;;;;16.00;15.00;;;15.10;66.90;;;;;;5088324;28;20496;-74
2023/06/28 03:15:56;;;;;;;20.63;19.33;;;15.00;66.60;;;;;;5048640;28;20029;-75
2023/06/28 03:18:22;;;;;;;16.52;15.18;;;15.20;67.30;;;;;;5054793;28;20029;-73
2023/06/28 03:20:47;;;;;;;14.77;13.88;;;15.10;67.40;;;;;;5071366;28;20101;-74
2023/06/28 03:23:13;;;;;;;16.42;14.90;;;15.00;67.00;;;;;;5077850;28;20202;-73
2023/06/28 03:25:39;;;;;;;16.02;14.82;;;15.00;67.10;;;;;;5075292;28;20442;-74
2023/06/28 03:28:04;;;;;;;15.80;14.77;;;14.90;68.00;;;;;;5074107;28;20035;-74
2023/06/28 03:30:30;;;;;;;15.85;14.65;;;14.90;68.90;;;;;;5074849;28;20057;-74
2023/06/28 03:32:55;;;;;;;14.63;13.52;;;14.80;69.40;;;;;;5038944;28;20551;-73
2023/06/28 03:35:21;;;;;;;13.90;12.93;;;14.80;69.90;;;;;;5057998;28;20067;-74
2023/06/28 03:37:55;;;;;;;15.18;14.23;;;14.80;70.20;;;;;;5077550;28;20137;-73
2023/06/28 03:40:21;;;;;;;13.90;13.00;;;14.90;69.60;;;;;;5072269;28;20040;-74
2023/06/28 03:42:48;;;;;;;16.35;15.45;;;14.80;69.90;;;;;;5076644;28;20029;-74
2023/06/28 03:45:17;;;;;;;16.15;14.77;;;14.80;69.70;;;;;;5057899;28;20053;-74
2023/06/28 03:47:43;;;;;;;13.48;12.38;;;14.70;69.20;;;;;;5073262;28;20028;-74
2023/06/28 03:50:09;;;;;;;14.07;13.15;;;14.60;69.80;;;;;;5075358;28;20090;-74
2023/06/28 03:52:36;;;;;;;12.88;11.63;;;14.60;71.00;;;;;;5071654;28;20035;-73
2023/06/28 03:55:03;;;;;;;13.18;11.98;;;14.50;70.60;;;;;;5071998;28;20025;-73
2023/06/28 03:57:29;;;;;;;12.50;11.43;;;14.60;72.10;;;;;;5070000;28;20709;-73
2023/06/28 03:59:55;;;;;;;13.63;12.02;;;14.60;72.00;;;;;;5069739;28;20043;-73
2023/06/28 04:02:21;;;;;;;12.45;11.25;;;14.50;71.20;;;;;;5071823;28;20113;-73
2023/06/28 04:04:46;;;;;;;12.02;11.23;;;14.40;71.70;;;;;;5070590;28;20515;-73
2023/06/28 04:07:12;;;;;;;16.92;15.32;;;14.40;72.20;;;;;;5070202;28;20571;-74
2023/06/28 04:09:38;;;;;;;17.35;16.25;;;14.60;71.70;;;;;;5057358;28;20170;-74
2023/06/28 04:12:05;;;;;;;16.15;14.88;;;14.60;71.30;;;;;;5070097;28;20033;-75
2023/06/28 04:14:30;;;;;;;17.30;16.17;;;14.50;71.40;;;;;;5066987;28;20683;-75
2023/06/28 04:16:56;;;;;;;14.43;13.55;;;14.40;70.80;;;;;;5070987;28;20043;-74
2023/06/28 04:19:22;;;;;;;15.65;14.60;;;14.40;71.30;;;;;;5072377;28;20437;-74
2023/06/28 04:21:47;;;;;;;14.70;13.85;;;14.40;71.80;;;;;;5075365;28;20030;-74
2023/06/28 04:24:13;;;;;;;13.68;12.57;;;14.50;72.00;;;;;;5067689;28;20061;-79
2023/06/28 04:26:39;;;;;;;13.93;12.82;;;14.50;71.20;;;;;;5074188;28;20024;-78
2023/06/28 04:29:04;;;;;;;12.30;11.48;;;14.40;71.90;;;;;;5072420;28;20043;-78
2023/06/28 04:31:31;;;;;;;14.18;13.15;;;14.50;71.80;;;;;;5071917;28;20513;-78
2023/06/28 04:33:57;;;;;;;11.77;10.98;;;14.60;71.70;;;;;;5055679;28;20530;-78
2023/06/28 04:36:25;;;;;;;12.80;12.00;;;14.60;70.70;;;;;;5076702;28;20471;-78
2023/06/28 04:38:52;;;;;;;12.75;12.02;;;14.70;71.20;;;;;;5070818;28;20437;-76
2023/06/28 04:41:27;;;;;;;13.18;12.25;;;14.90;70.50;;;;;;5076324;28;20087;-82
2023/06/28 04:43:55;;;;;;;13.38;12.55;;;14.80;70.70;;;;;;5050239;28;20033;-85
2023/06/28 04:46:28;;;;;;;12.77;11.88;;;14.70;70.70;;;;;;5059289;28;20047;-83
2023/06/28 04:48:54;;;;;;;12.63;11.77;;;14.70;71.70;;;;;;5070532;28;20209;-82
2023/06/28 04:51:20;;;;;;;12.20;11.32;;;14.80;71.60;;;;;;5071640;28;20072;-83
2023/06/28 04:53:47;;;;;;;12.50;11.32;;;14.90;70.00;;;;;;5067725;28;20048;-85
2023/06/28 04:56:16;;;;;;;12.23;11.18;;;14.80;70.30;;;;;;5077303;28;20040;-80
2023/06/28 04:58:42;;;;;;;11.38;10.52;;;14.90;71.30;;;;;;5079579;28;20124;-84
2023/06/28 05:01:08;;;;;;;12.27;11.40;;;14.90;71.10;;;;;;5060580;28;20042;-83
2023/06/28 05:03:35;;;;;;;12.90;12.10;;;14.90;70.80;;;;;;5073668;28;20394;-81
2023/06/28 05:06:08;;;;;;;11.85;10.90;;;14.70;70.70;;;;;;5089036;28;20024;-82
2023/06/28 05:08:34;;;;;;;13.40;12.27;;;14.80;71.40;;;;;;5074916;28;20020;-84
2023/06/28 05:11:00;;;;;;;12.63;11.73;;;14.70;71.00;;;;;;5087896;28;20028;-84
2023/06/28 05:13:26;;;;;;;11.32;10.25;;;14.80;71.70;;;;;;5095678;28;20851;-80
2023/06/28 05:15:52;;;;;;;12.48;11.48;;;15.10;70.80;;;;;;5081097;28;20033;-81
2023/06/28 05:18:18;;;;;;;12.52;11.63;;;15.30;70.90;;;;;;5076159;28;20029;-81
2023/06/28 05:20:44;;;;;;;12.52;11.32;;;15.10;69.90;;;;;;5074387;28;20043;-80
2023/06/28 05:23:12;;;;;;;11.50;10.68;;;15.10;71.50;;;;;;5069825;28;20448;-81
2023/06/28 05:25:39;;;;;;;10.73;9.95;;;15.20;71.40;;;;;;5074415;28;20103;-80
2023/06/28 05:28:05;;;;;;;11.77;10.82;;;15.20;69.90;;;;;;5074723;28;20117;-80
2023/06/28 05:30:31;;;;;;;12.10;11.20;;;15.20;69.40;;;;;;5088839;28;20131;-81
2023/06/28 05:32:58;;;;;;;11.52;10.50;;;15.20;70.30;;;;;;5056468;28;20044;-81
2023/06/28 05:35:24;;;;;;;12.38;11.15;;;15.30;69.90;;;;;;5074376;28;20060;-80
2023/06/28 05:37:50;;;;;;;11.60;10.70;;;15.60;69.50;;;;;;5092317;28;20494;-83
2023/06/28 05:40:16;;;;;;;12.10;11.10;;;15.40;69.90;;;;;;5058440;28;20119;-80
2023/06/28 05:42:41;;;;;;;11.60;10.70;;;15.60;69.40;;;;;;5055174;28;20025;-80
2023/06/28 05:45:08;;;;;;;11.00;10.02;;;15.60;69.60;;;;;;5059577;28;20433;-80
2023/06/28 05:47:33;;;;;;;11.75;10.85;;;15.50;69.90;;;;;;5077850;28;20028;-79
2023/06/28 05:49:59;;;;;;;11.80;10.90;;;15.60;69.50;;;;;;5072286;28;20371;-79
2023/06/28 05:52:25;;;;;;;12.82;11.52;;;15.50;69.40;;;;;;5073249;28;20401;-82
2023/06/28 05:54:50;;;;;;;12.25;11.23;;;15.70;69.20;;;;;;5074166;28;20032;-79
2023/06/28 05:57:16;;;;;;;13.60;12.50;;;15.50;69.40;;;;;;5069822;28;20037;-79
2023/06/28 05:59:42;;;;;;;12.20;11.00;;;15.90;70.10;;;;;;5072188;28;20028;-78
2023/06/28 06:02:07;;;;;;;11.68;10.77;;;15.70;69.00;;;;;;5073229;28;20457;-79
2023/06/28 06:04:33;;;;;;;13.57;12.57;;;15.70;68.90;;;;;;5076409;28;20035;-79
2023/06/28 06:06:59;;;;;;;11.60;10.80;;;15.70;68.30;;;;;;5073326;28;20024;-80
2023/06/28 06:09:25;;;;;;;12.18;11.18;;;15.90;68.80;;;;;;5059317;28;20094;-80
2023/06/28 06:11:51;;;;;;;13.00;11.80;;;16.00;69.50;;;;;;5075523;28;20032;-80
2023/06/28 06:14:17;;;;;;;12.60;11.30;;;15.90;67.90;;;;;;5074142;28;20449;-81
2023/06/28 06:16:42;;;;;;;13.20;12.30;;;15.80;69.30;;;;;;5072308;28;20032;-79
2023/06/28 06:19:08;;;;;;;10.95;10.15;;;15.80;69.70;;;;;;5075396;28;20029;-78
2023/06/28 06:21:34;;;;;;;12.40;11.40;;;15.90;69.70;;;;;;5072230;28;20371;-79
2023/06/28 06:24:01;;;;;;;13.40;12.30;;;16.10;69.30;;;;;;5078963;28;20482;-78
2023/06/28 06:26:27;;;;;;;12.70;11.80;;;16.50;67.80;;;;;;5053924;28;20672;-82
2023/06/28 06:28:53;;;;;;;13.75;12.70;;;16.80;66.50;;;;;;5075344;28;20024;-79
2023/06/28 06:31:19;;;;;;;12.75;11.95;;;17.10;65.30;;;;;;5070895;28;20394;-79
2023/06/28 06:33:44;;;;;;;13.05;12.02;;;17.40;64.40;;;;;;5075654;28;20036;-80
2023/06/28 06:36:10;;;;;;;13.68;12.65;;;17.40;64.90;;;;;;5054451;28;20493;-80
2023/06/28 06:38:37;;;;;;;13.90;12.70;;;17.20;64.00;;;;;;5075842;28;20028;-78
2023/06/28 06:41:03;;;;;;;14.07;13.07;;;17.50;65.20;;;;;;5071262;28;20074;-80
2023/06/28 06:43:29;;;;;;;16.63;15.48;;;17.60;64.00;;;;;;5061763;28;20043;-81
2023/06/28 06:45:54;;;;;;;17.05;15.85;;;18.00;62.50;;;;;;5072019;28;20033;-76
2023/06/28 06:48:20;;;;;;;22.40;21.10;;;18.10;62.00;;;;;;5072226;28;20036;-76
2023/06/28 06:50:46;;;;;;;18.45;17.45;;;18.30;59.90;;;;;;5091768;28;20028;-76
2023/06/28 06:53:11;;;;;;;20.80;19.50;;;18.40;60.50;;;;;;5057144;28;20036;-76
2023/06/28 06:55:37;;;;;;;20.67;19.55;;;18.70;59.50;;;;;;5073850;28;20025;-78
2023/06/28 06:58:03;;;;;;;21.90;20.67;;;18.50;60.80;;;;;;5038988;28;20028;-77
2023/06/28 07:00:29;;;;;;;18.45;17.17;;;18.90;60.00;;;;;;5075681;28;20036;-76
2023/06/28 07:02:54;;;;;;;21.15;20.08;;;19.10;60.80;;;;;;5091969;28;20032;-76
2023/06/28 07:05:20;;;;;;;21.30;20.02;;;18.70;59.00;;;;;;5085414;28;20036;-75
2023/06/28 07:07:46;;;;;;;20.33;18.92;;;18.80;56.10;;;;;;5074420;28;20031;-76
2023/06/28 07:10:11;;;;;;;20.35;19.08;;;18.90;57.50;;;;;;5076177;28;20052;-76
2023/06/28 07:12:37;;;;;;;20.75;19.60;;;19.20;58.40;;;;;;5087599;28;20040;-75
2023/06/28 07:15:03;;;;;;;21.88;20.58;;;18.60;60.90;;;;;;5072601;28;20033;-75
2023/06/28 07:17:30;;;;;;;23.40;21.77;;;19.00;61.00;;;;;;5072925;28;20024;-75
2023/06/28 07:19:56;;;;;;;20.60;19.27;;;18.60;60.10;;;;;;5074325;28;20052;-75
2023/06/28 07:22:22;;;;;;;22.63;21.08;;;19.10;57.20;;;;;;5073413;28;20466;-76
2023/06/28 07:24:47;;;;;;;20.83;19.65;;;18.90;58.20;;;;;;5054369;28;20060;-76
2023/06/28 07:27:13;;;;;;;22.88;21.52;;;19.30;56.60;;;;;;5076091;28;20043;-77
2023/06/28 07:29:39;;;;;;;27.45;26.08;;;19.30;57.80;;;;;;5091956;28;20038;-76
2023/06/28 07:32:05;;;;;;;58.28;55.88;;;19.60;55.90;;;;;;5090254;28;20040;-76
2023/06/28 07:34:34;;;;;;;41.80;39.60;;;20.00;52.90;;;;;;5055906;28;20024;-76
2023/06/28 07:37:05;;;;;;;73.43;70.63;;;20.20;53.20;;;;;;5073037;28;20038;-76
2023/06/28 07:39:32;;;;;;;82.82;79.07;;;20.40;51.20;;;;;;5070746;28;20052;-76
2023/06/28 07:41:58;;;;;;;67.93;64.95;;;20.10;51.50;;;;;;5074345;28;20035;-77
2023/06/28 07:44:23;;;;;;;100.82;96.90;;;20.00;50.70;;;;;;5084861;28;20044;-76
2023/06/28 07:46:49;;;;;;;75.97;72.95;;;19.80;51.10;;;;;;5083367;28;20050;-77
2023/06/28 07:49:15;;;;;;;75.82;72.90;;;20.00;52.40;;;;;;5073215;28;20078;-76
2023/06/28 07:51:41;;;;;;;85.78;82.38;;;20.20;49.70;;;;;;5069757;28;21448;-76
2023/06/28 07:54:07;;;;;;;108.78;104.72;;;20.00;51.60;;;;;;5052064;28;20032;-76
2023/06/28 07:56:33;;;;;;;92.65;89.15;;;20.60;51.40;;;;;;5050280;28;20444;-76
2023/06/28 07:59:01;;;;;;;98.45;94.75;;;20.90;49.90;;;;;;5068918;28;20166;-76
2023/06/28 08:01:27;;;;;;;193.70;186.73;;;21.10;49.00;;;;;;5070245;28;20024;-76
2023/06/28 08:03:53;;;;;;;144.93;139.40;;;20.80;45.20;;;;;;5066176;28;20052;-76
2023/06/28 08:06:19;;;;;;;101.18;97.35;;;21.00;46.60;;;;;;5073128;28;20519;-76
2023/06/28 08:08:46;;;;;;;188.57;181.73;;;20.70;50.70;;;;;;5052779;28;20093;-76
2023/06/28 08:11:12;;;;;;;113.03;108.72;;;21.00;46.50;;;;;;5068561;28;20045;-76
2023/06/28 08:13:38;;;;;;;110.65;106.57;;;20.90;47.40;;;;;;5045857;28;20465;-76
2023/06/28 08:16:04;;;;;;;99.38;95.50;;;20.50;49.10;;;;;;5070529;28;20085;-76
2023/06/28 08:18:30;;;;;;;114.75;110.53;;;20.50;50.70;;;;;;5072917;28;20021;-76
2023/06/28 08:20:55;;;;;;;188.50;181.50;;;20.60;50.10;;;;;;5077830;28;20074;-77
2023/06/28 08:23:21;;;;;;;317.55;305.38;;;20.90;47.00;;;;;;5071115;28;20071;-77
2023/06/28 08:25:47;;;;;;;258.73;249.15;;;21.60;45.30;;;;;;5057549;28;20115;-77
2023/06/28 08:28:12;;;;;;;143.75;138.00;;;21.60;46.10;;;;;;5074079;28;20548;-77
2023/06/28 08:30:38;;;;;;;213.27;205.43;;;21.30;48.50;;;;;;5087852;28;20139;-76
2023/06/28 08:33:04;;;;;;;420.55;403.05;;;21.40;46.30;;;;;;5089768;28;20035;-76
2023/06/28 08:35:30;;;;;;;407.75;390.35;;;21.70;41.90;;;;;;5077569;28;20102;-76
2023/06/28 08:37:56;;;;;;;354.67;340.90;;;21.20;42.60;;;;;;5073597;28;20040;-76
2023/06/28 08:40:24;;;;;;;342.08;328.80;;;21.10;43.70;;;;;;5057227;28;20498;-77
2023/06/28 08:42:50;;;;;;;397.48;381.25;;;21.30;43.10;;;;;;5091056;28;20060;-78
2023/06/28 08:45:16;;;;;;;321.30;308.58;;;21.60;42.20;;;;;;5075468;28;20028;-77
2023/06/28 08:47:42;;;;;;;352.23;338.50;;;21.50;43.00;;;;;;5094719;28;20538;-77
2023/06/28 08:50:09;;;;;;;313.98;302.25;;;21.50;43.00;;;;;;5057551;28;20032;-76
2023/06/28 08:52:35;;;;;;;348.10;334.45;;;21.90;43.90;;;;;;5075630;28;20170;-76
2023/06/28 08:55:03;;;;;;;617.17;587.55;;;21.70;42.60;;;;;;5075265;28;20032;-76
2023/06/28 08:57:30;;;;;;;539.75;514.78;;;22.00;41.70;;;;;;5078118;28;20124;-76
2023/06/28 08:59:56;;;;;;;657.20;624.42;;;21.70;41.40;;;;;;5073796;28;20032;-76
2023/06/28 09:02:23;;;;;;;658.90;625.65;;;21.80;40.40;;;;;;5074497;28;20494;-76
2023/06/28 09:04:51;;;;;;;661.25;627.97;;;21.70;40.60;;;;;;5074365;28;20086;-76
2023/06/28 09:07:18;;;;;;;380.38;365.27;;;21.90;39.60;;;;;;5070672;28;20060;-77
2023/06/28 09:09:48;;;;;;;370.00;354.00;;;21.80;44.70;;;;;;5054938;28;20041;-76
2023/06/28 09:12:15;;;;;;;516.70;492.67;;;21.70;43.90;;;;;;5074361;28;20044;-76
2023/06/28 09:14:41;;;;;;;398.08;381.88;;;21.60;42.90;;;;;;5074541;28;20051;-76
2023/06/28 09:17:06;;;;;;;513.03;489.13;;;21.70;44.30;;;;;;5054390;28;20487;-77
2023/06/28 09:19:32;;;;;;;636.88;605.65;;;22.20;41.60;;;;;;5074791;28;20033;-76
2023/06/28 09:22:05;;;;;;;610.63;580.40;;;22.80;42.00;;;;;;5073682;28;20084;-76
2023/06/28 09:24:34;;;;;;;672.08;636.75;;;23.10;39.70;;;;;;5059727;28;20406;-76
2023/06/28 09:27:04;;;;;;;661.17;627.17;;;23.20;39.20;;;;;;5076163;28;20092;-77
2023/06/28 09:29:29;;;;;;;493.30;471.23;;;23.10;40.00;;;;;;5094041;28;20849;-77
2023/06/28 09:31:55;;;;;;;545.58;515.20;;;23.20;43.40;;;;;;5076644;28;20028;-77
2023/06/28 09:34:22;;;;;;;606.88;573.05;;;22.20;39.40;;;;;;5087429;28;20502;-76
2023/06/28 09:36:55;;;;;;;528.40;501.70;;;22.40;40.00;;;;;;5092648;28;20024;-76
2023/06/28 09:39:27;;;;;;;602.50;570.38;;;22.70;43.00;;;;;;5074335;28;20137;-77
2023/06/28 09:41:54;;;;;;;1999.90;999.90;;;23.00;38.80;;;;;;5072927;28;20012;-77
2023/06/28 09:44:28;;;;;;;1999.90;999.90;;;23.00;37.00;;;;;;5074038;28;20097;-78
2023/06/28 09:47:00;;;;;;;1549.38;796.45;;;23.00;36.20;;;;;;5075232;28;20082;-78
2023/06/28 09:49:26;;;;;;;445.13;419.00;;;22.90;36.60;;;;;;5072914;28;20062;-78
2023/06/28 09:52:02;;;;;;;1999.90;999.90;;;23.00;38.80;;;;;;5071836;28;20087;-77
2023/06/28 09:54:35;;;;;;;1999.90;999.90;;;22.90;38.10;;;;;;5074360;28;20094;-78
2023/06/28 09:57:02;;;;;;;1999.90;999.90;;;23.10;37.30;;;;;;5075254;28;20032;-78
2023/06/28 09:59:32;;;;;;;1999.90;999.90;;;23.50;36.50;;;;;;5072006;28;20056;-78
2023/06/28 10:02:01;;;;;;;474.40;445.67;;;23.70;37.20;;;;;;5090120;28;20182;-76
2023/06/28 10:04:30;;;;;;;1999.90;999.90;;;23.20;38.70;;;;;;5071418;28;20041;-77
2023/06/28 10:07:02;;;;;;;581.33;548.38;;;23.50;37.30;;;;;;5051436;28;20116;-76
2023/06/28 10:09:38;;;;;;;531.47;499.95;;;22.40;41.70;;;;;;5075627;28;20123;-76
2023/06/28 10:12:09;;;;;;;547.63;514.70;;;22.80;40.50;;;;;;5055927;28;20058;-76
2023/06/28 10:14:40;;;;;;;283.67;265.95;;;23.20;41.30;;;;;;5053948;28;20043;-76
2023/06/28 10:17:06;;;;;;;1999.90;999.90;;;24.40;38.30;;;;;;5075907;28;20049;-76
2023/06/28 10:19:33;;;;;;;1999.90;999.90;;;24.80;34.80;;;;;;5072726;28;20024;-75
2023/06/28 10:21:59;;;;;;;1999.90;999.90;;;24.80;34.40;;;;;;5077491;28;20619;-75
2023/06/28 10:24:31;;;;;;;345.92;323.85;;;25.30;35.70;;;;;;5075323;28;20059;-77
2023/06/28 10:27:00;;;;;;;1999.90;999.90;;;25.00;37.10;;;;;;5068463;28;20016;-77
2023/06/28 10:29:26;;;;;;;1999.90;999.90;;;25.20;33.00;;;;;;5073830;28;20056;-79
2023/06/28 10:31:53;;;;;;;1545.05;792.15;;;24.90;36.00;;;;;;5073894;28;20447;-79
2023/06/28 10:34:20;;;;;;;1999.90;999.90;;;24.40;35.50;;;;;;5056411;28;20048;-79
2023/06/28 10:36:49;;;;;;;1547.63;794.42;;;24.00;35.20;;;;;;5074694;28;20087;-78
2023/06/28 10:39:16;;;;;;;1999.90;999.90;;;23.10;39.10;;;;;;5052899;28;20106;-79
2023/06/28 10:41:42;;;;;;;1999.90;999.90;;;23.30;38.30;;;;;;5070922;28;20043;-79
2023/06/28 10:44:08;;;;;;;1999.90;999.90;;;23.40;35.80;;;;;;5074229;28;20635;-78
2023/06/28 10:46:34;;;;;;;596.17;559.65;;;23.50;36.80;;;;;;5039619;28;20033;-77
2023/06/28 10:49:00;;;;;;;1999.90;999.90;;;23.50;40.90;;;;;;5072459;28;20107;-77
2023/06/28 10:51:36;;;;;;;1999.90;999.90;;;24.40;36.40;;;;;;5071778;28;20020;-77
2023/06/28 10:54:09;;;;;;;1999.90;999.90;;;24.60;37.00;;;;;;5075033;28;20123;-77
2023/06/28 10:56:48;;;;;;;1999.90;999.90;;;24.10;34.90;;;;;;5054205;28;20522;-77
2023/06/28 10:59:14;;;;;;;1999.90;999.90;;;24.50;37.00;;;;;;5071940;28;20065;-77
2023/06/28 11:01:48;;;;;;;1999.90;999.90;;;24.90;35.90;;;;;;5072684;28;20496;-78
2023/06/28 11:04:22;;;;;;;1999.90;999.90;;;24.70;35.30;;;;;;5056781;28;20043;-79
2023/06/28 11:06:48;;;;;;;1999.90;999.90;;;23.60;35.80;;;;;;5076987;28;20024;-78
2023/06/28 11:09:18;;;;;;;1999.90;999.90;;;23.90;35.30;;;;;;5075574;28;20032;-78
2023/06/28 11:11:57;;;;;;;1999.90;999.90;;;24.40;36.10;;;;;;5071274;28;20081;-77
2023/06/28 11:14:25;;;;;;;1999.90;999.90;;;23.80;37.40;;;;;;5075259;28;20063;-78
2023/06/28 11:16:52;;;;;;;1999.90;999.90;;;24.00;34.90;;;;;;5052701;28;20804;-78
2023/06/28 11:19:22;;;;;;;1999.90;999.90;;;23.80;35.90;;;;;;5074808;28;20024;-77
2023/06/28 11:21:55;;;;;;;1999.90;999.90;;;23.30;40.30;;;;;;5075791;28;20025;-76
2023/06/28 11:24:34;;;;;;;1999.90;999.90;;;23.70;35.90;;;;;;5072822;28;20037;-78
2023/06/28 11:27:00;;;;;;;1999.90;999.90;;;23.80;35.50;;;;;;5078675;28;20573;-77
2023/06/28 11:29:26;;;;;;;1999.90;999.90;;;24.60;34.40;;;;;;5057954;28;20033;-78
2023/06/28 11:31:55;;;;;;;1999.90;999.90;;;24.30;32.00;;;;;;5079211;28;20043;-78
2023/06/28 11:34:21;;;;;;;1999.90;999.90;;;25.60;30.60;;;;;;5078154;28;20036;-77
2023/06/28 11:36:48;;;;;;;1999.90;999.90;;;25.40;30.70;;;;;;5079903;28;20035;-78
2023/06/28 11:39:18;;;;;;;1999.90;999.90;;;24.20;31.10;;;;;;5076548;28;20064;-77
2023/06/28 11:41:44;;;;;;;;;;;24.00;32.40;;;;;;5078946;28;20033;-78
2023/06/28 11:44:13;;;;;;;1999.90;999.90;;;24.90;31.50;;;;;;5072288;28;20384;-77
2023/06/28 11:46:41;;;;;;;1999.90;999.90;;;25.90;29.50;;;;;;5076361;28;20024;-77
2023/06/28 11:49:08;;;;;;;1999.90;999.90;;;26.70;29.60;;;;;;5074347;28;20036;-77
2023/06/28 11:51:34;;;;;;;1999.90;999.90;;;27.60;29.60;;;;;;5076868;28;20032;-78
2023/06/28 11:54:01;;;;;;;1999.90;999.90;;;28.40;26.80;;;;;;5078969;28;20674;-81
2023/06/28 11:56:38;;;;;;;1999.90;999.90;;;28.20;25.80;;;;;;5075637;28;20036;-78
2023/06/28 11:59:20;;;;;;;1999.90;999.90;;;26.90;27.40;;;;;;5074386;28;20119;-78
2023/06/28 12:01:47;;;;;;;1999.90;999.90;;;25.90;30.60;;;;;;5070610;28;20024;-78
2023/06/28 12:04:17;;;;;;;1999.90;999.90;;;26.40;32.00;;;;;;5073591;28;20033;-78
2023/06/28 12:06:43;;;;;;;1999.90;999.90;;;26.40;29.90;;;;;;5080379;28;20032;-78
2023/06/28 12:09:27;;;;;;;1999.90;999.90;;;25.60;30.10;;;;;;5076168;28;20135;-78
2023/06/28 12:12:03;;;;;;;1999.90;999.90;;;26.30;29.90;;;;;;5061364;28;20059;-77
2023/06/28 12:14:36;;;;;;;1999.90;999.90;;;26.40;31.10;;;;;;5061772;28;20831;-77
2023/06/28 12:17:03;;;;;;;1999.90;999.90;;;28.30;29.30;;;;;;5073308;28;20054;-77